createdAt,value
2022-11-10T00:00:53.616Z,66.09
2022-11-10T00:02:55.581Z,66.19
2022-11-10T00:04:57.260Z,66.11
2022-11-10T00:06:58.959Z,65.90
2022-11-10T00:09:00.792Z,65.88
2022-11-10T00:11:07.078Z,65.89
2022-11-10T00:13:08.738Z,66.39
2022-11-10T00:15:30.005Z,66.09
2022-11-10T00:17:32.139Z,66.33
2022-11-10T00:19:34.652Z,66.00
2022-11-10T00:21:37.291Z,66.62
2022-11-10T00:23:39.236Z,66.14
2022-11-10T00:25:40.888Z,66.77
2022-11-10T00:27:42.465Z,66.57
2022-11-10T00:29:44.373Z,66.39
2022-11-10T00:31:46.003Z,65.75
2022-11-10T00:33:47.603Z,65.90
2022-11-10T00:35:49.224Z,65.76
2022-11-10T00:37:51.940Z,66.10
2022-11-10T00:39:53.750Z,65.72
2022-11-10T00:41:56.464Z,65.86
2022-11-10T00:43:58.120Z,66.15
2022-11-10T00:45:59.781Z,65.85
2022-11-10T00:48:01.460Z,66.31
2022-11-10T00:50:03.354Z,65.65
2022-11-10T00:52:04.999Z,66.29
2022-11-10T00:54:06.659Z,66.61
2022-11-10T00:56:08.276Z,66.27
2022-11-10T00:58:09.953Z,66.24
2022-11-10T01:00:11.920Z,66.92
2022-11-10T01:02:13.598Z,66.19
2022-11-10T01:04:15.319Z,66.42
2022-11-10T01:06:18.135Z,66.22
2022-11-10T01:08:19.741Z,66.01
2022-11-10T01:10:21.594Z,66.83
2022-11-10T01:12:23.186Z,66.42
2022-11-10T01:14:24.751Z,66.35
2022-11-10T01:16:29.396Z,66.61
2022-11-10T01:18:31.145Z,66.27
2022-11-10T01:20:36.265Z,66.09
2022-11-10T01:22:37.987Z,66.20
2022-11-10T01:24:39.588Z,66.70
2022-11-10T01:26:41.253Z,66.20
2022-11-10T01:28:43.121Z,66.14
2022-11-10T01:30:44.796Z,66.04
2022-11-10T01:32:46.567Z,65.90
2022-11-10T01:34:48.230Z,66.40
2022-11-10T01:36:49.808Z,66.61
2022-11-10T01:38:51.610Z,66.50
2022-11-10T01:40:53.221Z,66.36
2022-11-10T01:42:57.130Z,66.17
2022-11-10T01:45:37.275Z,66.10
2022-11-10T01:47:38.836Z,66.30
2022-11-10T01:49:40.462Z,66.46
2022-11-10T01:52:05.005Z,66.68
2022-11-10T01:54:12.294Z,66.66
2022-11-10T01:56:14.612Z,67.17
2022-11-10T01:58:18.569Z,66.68
2022-11-10T02:00:20.569Z,67.23
2022-11-10T02:02:28.851Z,67.30
2022-11-10T02:04:31.072Z,67.05
2022-11-10T02:06:38.059Z,66.82
2022-11-10T02:08:40.230Z,67.09
2022-11-10T02:10:42.005Z,67.07
2022-11-10T02:12:43.923Z,66.89
2022-11-10T02:14:45.648Z,66.97
2022-11-10T02:16:47.692Z,66.91
2022-11-10T02:18:49.670Z,66.99
2022-11-10T02:20:51.344Z,66.76
2022-11-10T02:22:52.989Z,66.68
2022-11-10T02:24:54.675Z,68.63
2022-11-10T02:26:56.668Z,69.10
2022-11-10T02:28:58.478Z,69.56
2022-11-10T02:31:00.221Z,70.03
2022-11-10T02:33:03.795Z,70.56
2022-11-10T02:35:05.829Z,69.98
2022-11-10T02:37:07.385Z,69.49
2022-11-10T02:39:09.010Z,68.91
2022-11-10T02:41:10.742Z,69.02
2022-11-10T02:43:14.239Z,67.88
2022-11-10T02:45:15.909Z,68.12
2022-11-10T02:47:26.980Z,67.55
2022-11-10T02:49:28.666Z,67.21
2022-11-10T02:51:30.322Z,67.56
2022-11-10T02:53:32.209Z,67.23
2022-11-10T02:55:34.093Z,67.18
2022-11-10T02:57:35.745Z,66.92
2022-11-10T02:59:37.525Z,67.00
2022-11-10T03:01:39.256Z,67.09
2022-11-10T03:03:40.937Z,66.98
2022-11-10T03:05:42.656Z,67.12
2022-11-10T03:07:44.299Z,67.07
2022-11-10T03:09:45.907Z,67.28
2022-11-10T03:11:47.535Z,67.06
2022-11-10T03:14:00.885Z,67.70
2022-11-10T03:16:04.247Z,67.24
2022-11-10T03:18:06.251Z,67.07
2022-11-10T03:20:08.384Z,66.87
2022-11-10T03:22:10.145Z,67.60
2022-11-10T03:24:11.896Z,66.72
2022-11-10T03:26:14.406Z,67.59
2022-11-10T03:28:16.266Z,67.04
2022-11-10T03:30:18.010Z,67.06
2022-11-10T03:32:19.612Z,66.98
2022-11-10T03:34:21.228Z,66.77
2022-11-10T03:36:22.920Z,67.13
2022-11-10T03:38:24.557Z,67.11
2022-11-10T03:40:26.246Z,66.98
2022-11-10T03:42:27.849Z,67.00
2022-11-10T03:44:29.467Z,67.12
2022-11-10T03:46:31.181Z,67.02
2022-11-10T03:48:32.850Z,67.14
2022-11-10T03:50:34.485Z,67.48
2022-11-10T03:52:38.977Z,67.46
2022-11-10T03:54:40.618Z,68.05
2022-11-10T03:56:42.350Z,67.07
2022-11-10T03:58:44.209Z,66.84
2022-11-10T04:00:45.814Z,66.19
2022-11-10T04:02:47.437Z,66.85
2022-11-10T04:05:07.517Z,66.98
2022-11-10T04:07:32.459Z,66.17
2022-11-10T04:09:34.276Z,66.44
2022-11-10T04:11:54.435Z,66.89
2022-11-10T04:14:14.801Z,66.88
2022-11-10T04:16:16.400Z,67.58
2022-11-10T04:18:21.230Z,67.42
2022-11-10T04:20:22.881Z,67.75
2022-11-10T04:22:43.379Z,66.83
2022-11-10T04:24:45.075Z,67.17
2022-11-10T04:26:48.628Z,67.09
2022-11-10T04:28:52.346Z,66.39
2022-11-10T04:30:54.005Z,66.81
2022-11-10T04:32:55.662Z,67.37
2022-11-10T04:34:57.291Z,66.12
2022-11-10T04:36:58.876Z,66.76
2022-11-10T04:39:00.927Z,66.78
2022-11-10T04:41:03.077Z,66.99
2022-11-10T04:43:04.687Z,66.79
2022-11-10T04:45:07.027Z,66.80
2022-11-10T04:47:11.770Z,66.69
2022-11-10T04:49:15.628Z,66.92
2022-11-10T04:51:18.527Z,67.05
2022-11-10T04:53:21.000Z,66.54
2022-11-10T04:55:22.905Z,66.25
2022-11-10T04:57:24.556Z,67.40
2022-11-10T04:59:26.168Z,67.39
2022-11-10T05:01:28.150Z,67.27
2022-11-10T05:03:29.752Z,67.01
2022-11-10T05:05:31.925Z,67.21
2022-11-10T05:07:33.671Z,67.11
2022-11-10T05:09:35.299Z,67.16
2022-11-10T05:11:37.276Z,66.95
2022-11-10T05:13:39.245Z,67.60
2022-11-10T05:15:42.221Z,67.02
2022-11-10T05:17:43.858Z,66.75
2022-11-10T05:19:47.595Z,67.26
2022-11-10T05:21:49.269Z,68.63
2022-11-10T05:23:50.892Z,68.08
2022-11-10T05:25:52.800Z,69.04
2022-11-10T05:27:54.635Z,69.04
2022-11-10T05:29:56.641Z,68.71
2022-11-10T05:31:58.304Z,68.12
2022-11-10T05:33:59.888Z,67.99
2022-11-10T05:36:01.991Z,68.00
2022-11-10T05:38:04.359Z,67.71
2022-11-10T05:40:06.568Z,67.57
2022-11-10T05:42:08.175Z,68.12
2022-11-10T05:44:09.865Z,66.97
2022-11-10T05:46:11.528Z,67.21
2022-11-10T05:48:13.196Z,67.45
2022-11-10T05:50:15.738Z,67.31
2022-11-10T05:52:17.359Z,67.23
2022-11-10T05:54:19.027Z,67.52
2022-11-10T05:56:20.922Z,67.83
2022-11-10T05:58:22.545Z,66.89
2022-11-10T06:00:30.110Z,66.98
2022-11-10T06:02:31.794Z,66.40
2022-11-10T06:04:33.356Z,66.50
2022-11-10T06:06:34.992Z,66.73
2022-11-10T06:08:36.734Z,66.23
2022-11-10T06:10:38.816Z,66.03
2022-11-10T06:12:40.480Z,65.92
2022-11-10T06:14:42.205Z,66.40
2022-11-10T06:16:43.811Z,65.84
2022-11-10T06:18:45.433Z,66.12
2022-11-10T06:20:47.713Z,66.26
2022-11-10T06:23:06.911Z,65.53
2022-11-10T06:25:09.372Z,65.61
2022-11-10T06:27:11.125Z,65.70
2022-11-10T06:29:12.730Z,65.89
2022-11-10T06:31:14.403Z,65.73
2022-11-10T06:33:16.080Z,65.20
2022-11-10T06:35:18.144Z,65.63
2022-11-10T06:37:19.893Z,65.13
2022-11-10T06:39:21.472Z,65.11
2022-11-10T06:41:25.448Z,65.81
2022-11-10T06:43:27.254Z,65.06
2022-11-10T06:45:29.138Z,64.89
2022-11-10T06:47:32.119Z,65.60
2022-11-10T06:49:34.438Z,64.89
2022-11-10T06:51:36.066Z,64.81
2022-11-10T06:53:37.634Z,64.60
2022-11-10T06:55:39.579Z,64.31
2022-11-10T06:57:41.201Z,64.19
2022-11-10T06:59:43.039Z,64.06
2022-11-10T07:01:44.772Z,64.09
2022-11-10T07:04:13.212Z,64.18
2022-11-10T07:06:08.389Z,65.28
2022-11-10T07:08:16.425Z,65.28
2022-11-10T07:10:18.249Z,65.38
2022-11-10T07:12:19.971Z,65.45
2022-11-10T07:14:21.653Z,65.01
2022-11-10T07:16:24.565Z,64.96
2022-11-10T07:18:26.409Z,64.82
2022-11-10T07:20:28.575Z,64.49
2022-11-10T07:22:30.567Z,65.42
2022-11-10T07:24:32.788Z,65.74
2022-11-10T07:26:34.885Z,66.89
2022-11-10T07:28:36.844Z,69.18
2022-11-10T07:30:41.350Z,68.27
2022-11-10T07:32:43.108Z,67.20
2022-11-10T07:34:44.817Z,66.85
2022-11-10T07:36:46.501Z,65.25
2022-11-10T07:38:48.133Z,65.26
2022-11-10T07:40:53.888Z,65.37
2022-11-10T07:42:55.525Z,65.36
2022-11-10T07:44:57.192Z,66.08
2022-11-10T07:46:58.938Z,66.43
2022-11-10T07:49:00.554Z,66.06
2022-11-10T07:51:02.183Z,65.59
2022-11-10T07:53:08.712Z,64.75
2022-11-10T07:55:10.431Z,64.44
2022-11-10T07:57:12.081Z,64.18
2022-11-10T07:59:13.694Z,64.08
2022-11-10T08:01:15.312Z,64.84
2022-11-10T08:03:19.391Z,65.75
2022-11-10T08:05:21.266Z,65.58
2022-11-10T08:07:22.986Z,66.73
2022-11-10T08:09:24.641Z,68.27
2022-11-10T08:11:26.287Z,67.68
2022-11-10T08:13:27.919Z,67.12
2022-11-10T08:15:30.493Z,65.93
2022-11-10T08:17:32.141Z,65.32
2022-11-10T08:19:33.755Z,64.59
2022-11-10T08:21:35.368Z,63.77
2022-11-10T08:23:37.053Z,63.36
2022-11-10T08:25:39.122Z,62.88
2022-11-10T08:27:40.813Z,63.38
2022-11-10T08:29:42.665Z,64.74
2022-11-10T08:31:44.259Z,65.73
2022-11-10T08:33:45.978Z,65.49
2022-11-10T08:35:50.169Z,65.86
2022-11-10T08:37:51.957Z,65.12
2022-11-10T08:39:53.686Z,65.48
2022-11-10T08:41:55.297Z,66.08
2022-11-10T08:43:57.267Z,66.13
2022-11-10T08:45:58.971Z,65.75
2022-11-10T08:48:11.194Z,65.24
2022-11-10T08:50:12.849Z,65.99
2022-11-10T08:52:14.498Z,66.76
2022-11-10T08:54:16.178Z,68.29
2022-11-10T08:56:18.065Z,67.31
2022-11-10T08:58:21.809Z,66.92
2022-11-10T09:00:23.497Z,67.48
2022-11-10T09:02:25.321Z,67.64
2022-11-10T09:04:26.980Z,68.26
2022-11-10T09:06:28.625Z,68.04
2022-11-10T09:08:33.923Z,68.17
2022-11-10T09:10:38.340Z,67.89
2022-11-10T09:12:41.322Z,67.81
2022-11-10T09:14:43.490Z,67.09
2022-11-10T09:16:45.133Z,65.99
2022-11-10T09:18:46.706Z,65.73
2022-11-10T09:20:48.628Z,65.42
2022-11-10T09:22:50.294Z,64.33
2022-11-10T09:24:51.924Z,64.51
2022-11-10T09:26:53.747Z,63.63
2022-11-10T09:28:55.320Z,62.80
2022-11-10T09:30:56.897Z,63.75
2022-11-10T09:32:59.894Z,63.73
2022-11-10T09:35:02.101Z,62.24
2022-11-10T09:37:04.116Z,61.74
2022-11-10T09:39:06.685Z,63.16
2022-11-10T09:41:11.518Z,62.85
2022-11-10T09:43:25.072Z,62.95
2022-11-10T09:45:39.187Z,63.92
2022-11-10T09:47:58.650Z,63.72
2022-11-10T09:50:01.628Z,64.34
2022-11-10T09:52:04.347Z,63.75
2022-11-10T09:54:06.468Z,63.63
2022-11-10T09:56:14.469Z,63.23
2022-11-10T09:58:16.317Z,62.52
2022-11-10T10:00:18.529Z,61.36
2022-11-10T10:02:28.516Z,61.70
2022-11-10T10:05:06.642Z,61.49
2022-11-10T10:07:12.226Z,61.29
2022-11-10T10:09:22.978Z,60.56
2022-11-10T10:11:33.756Z,60.33
2022-11-10T10:13:57.362Z,59.81
2022-11-10T10:16:12.452Z,60.97
2022-11-10T10:18:36.407Z,63.32
2022-11-10T10:20:47.051Z,63.66
2022-11-10T10:23:06.216Z,63.01
2022-11-10T10:25:14.298Z,61.87
2022-11-10T10:27:21.741Z,61.38
2022-11-10T10:29:25.873Z,61.52
2022-11-10T10:31:42.506Z,61.95
2022-11-10T10:33:45.006Z,61.63
2022-11-10T10:35:48.729Z,61.14
2022-11-10T10:37:56.097Z,60.61
2022-11-10T10:39:57.750Z,60.57
2022-11-10T10:41:59.521Z,61.37
2022-11-10T10:44:02.727Z,61.03
2022-11-10T10:46:15.236Z,60.38
2022-11-10T10:48:30.700Z,60.83
2022-11-10T10:50:37.718Z,58.76
2022-11-10T10:52:39.327Z,57.88
2022-11-10T10:54:41.232Z,57.82
2022-11-10T10:56:42.950Z,58.20
2022-11-10T10:58:52.447Z,58.17
2022-11-10T11:01:04.080Z,58.42
2022-11-10T11:03:13.302Z,58.47
2022-11-10T11:05:17.950Z,58.59
2022-11-10T11:07:22.812Z,58.55
2022-11-10T11:09:26.848Z,58.24
2022-11-10T11:11:31.271Z,57.78
2022-11-10T11:13:33.135Z,57.32
2022-11-10T11:15:34.995Z,56.65
2022-11-10T11:17:36.698Z,56.18
2022-11-10T11:19:39.212Z,55.89
2022-11-10T11:22:04.739Z,55.34
2022-11-10T11:24:18.247Z,56.24
2022-11-10T11:26:42.922Z,56.19
2022-11-10T11:28:54.033Z,55.58
2022-11-10T11:31:14.306Z,55.43
2022-11-10T11:33:40.954Z,55.05
2022-11-10T11:36:03.679Z,54.72
2022-11-10T11:38:25.624Z,54.50
2022-11-10T11:40:33.455Z,53.66
2022-11-10T11:43:09.107Z,53.92
2022-11-10T11:45:19.220Z,54.20
2022-11-10T11:47:39.777Z,54.97
2022-11-10T11:50:13.044Z,54.52
2022-11-10T11:52:38.062Z,55.83
2022-11-10T11:54:48.697Z,57.30
2022-11-10T11:56:50.983Z,57.36
2022-11-10T11:58:59.720Z,56.99
2022-11-10T12:01:32.261Z,56.77
2022-11-10T12:03:55.980Z,55.89
2022-11-10T12:06:48.167Z,55.12
2022-11-10T12:09:17.380Z,54.11
2022-11-10T12:11:37.551Z,53.78
2022-11-10T12:14:17.128Z,53.42
2022-11-10T12:16:27.654Z,53.01
2022-11-10T12:18:32.391Z,53.10
2022-11-10T12:20:42.454Z,53.32
2022-11-10T12:22:44.072Z,53.43
2022-11-10T12:25:37.153Z,54.46
2022-11-10T12:27:42.937Z,54.94
2022-11-10T12:29:57.004Z,56.23
2022-11-10T12:32:18.782Z,55.89
2022-11-10T12:34:52.789Z,56.02
2022-11-10T12:36:54.403Z,55.53
2022-11-10T12:39:07.612Z,55.29
2022-11-10T12:41:12.591Z,56.01
2022-11-10T12:43:22.674Z,56.11
2022-11-10T12:45:28.194Z,56.13
2022-11-10T12:47:36.177Z,55.60
2022-11-10T12:49:39.683Z,55.65
2022-11-10T12:51:53.407Z,55.26
2022-11-10T12:53:55.191Z,55.18
2022-11-10T12:56:00.924Z,55.10
2022-11-10T12:58:04.679Z,55.20
2022-11-10T13:00:09.422Z,54.97
2022-11-10T13:02:16.193Z,54.47
2022-11-10T13:04:19.292Z,55.09
2022-11-10T13:06:36.763Z,55.56
2022-11-10T13:08:41.440Z,55.36
2022-11-10T13:11:05.244Z,54.81
2022-11-10T13:13:15.034Z,54.66
2022-11-10T13:15:35.352Z,54.37
2022-11-10T13:17:36.921Z,54.19
2022-11-10T13:19:39.164Z,53.83
2022-11-10T13:21:52.861Z,53.90
2022-11-10T13:23:56.159Z,53.78
2022-11-10T13:26:02.766Z,53.76
2022-11-10T13:28:05.139Z,53.85
2022-11-10T13:30:09.107Z,53.86
2022-11-10T13:32:14.065Z,53.63
2022-11-10T13:34:21.788Z,53.75
2022-11-10T13:36:46.765Z,53.89
2022-11-10T13:38:49.213Z,53.82
2022-11-10T13:40:50.874Z,53.90
2022-11-10T13:42:58.619Z,53.88
2022-11-10T13:45:33.267Z,53.81
2022-11-10T13:47:52.082Z,53.60
2022-11-10T13:50:24.231Z,53.63
2022-11-10T13:52:28.845Z,53.72
2022-11-10T13:54:55.574Z,53.69
2022-11-10T13:57:23.417Z,53.45
2022-11-10T13:59:27.547Z,53.57
2022-11-10T14:01:30.552Z,53.32
2022-11-10T14:03:54.152Z,53.03
2022-11-10T14:06:04.630Z,52.70
2022-11-10T14:08:10.760Z,52.81
2022-11-10T14:10:19.052Z,52.86
2022-11-10T14:12:21.188Z,53.05
2022-11-10T14:14:30.422Z,52.92
2022-11-10T14:16:33.171Z,52.96
2022-11-10T14:18:41.266Z,52.74
2022-11-10T14:20:44.645Z,52.58
2022-11-10T14:22:47.563Z,52.77
2022-11-10T14:24:54.041Z,52.64
2022-11-10T14:26:58.722Z,52.91
2022-11-10T14:29:19.622Z,52.98
2022-11-10T14:31:23.768Z,52.75
2022-11-10T14:33:26.617Z,52.74
2022-11-10T14:35:30.416Z,52.53
2022-11-10T14:37:31.938Z,52.62
2022-11-10T14:39:34.686Z,52.55
2022-11-10T14:41:36.342Z,52.73
2022-11-10T14:43:39.214Z,52.88
2022-11-10T14:45:50.834Z,52.94
2022-11-10T14:47:55.977Z,53.38
2022-11-10T14:50:04.916Z,53.49
2022-11-10T14:52:06.608Z,53.70
2022-11-10T14:54:11.922Z,53.83
2022-11-10T14:56:21.430Z,53.64
2022-11-10T14:58:35.084Z,54.03
2022-11-10T15:00:38.697Z,54.27
2022-11-10T15:02:40.479Z,54.55
2022-11-10T15:04:45.843Z,54.07
2022-11-10T15:06:48.613Z,54.28
2022-11-10T15:08:50.296Z,54.03
2022-11-10T15:10:56.537Z,53.71
2022-11-10T15:13:04.491Z,53.37
2022-11-10T15:15:20.374Z,53.51
2022-11-10T15:17:22.018Z,53.53
2022-11-10T15:19:31.623Z,53.52
2022-11-10T15:21:34.235Z,54.19
2022-11-10T15:23:40.906Z,54.76
2022-11-10T15:25:42.697Z,55.37
2022-11-10T15:28:05.317Z,55.99
2022-11-10T15:30:22.144Z,56.45
2022-11-10T15:32:31.632Z,56.96
2022-11-10T15:34:44.933Z,57.36
2022-11-10T15:36:46.894Z,57.44
2022-11-10T15:39:05.577Z,57.91
2022-11-10T15:41:26.791Z,58.10
2022-11-10T15:43:29.257Z,58.43
2022-11-10T15:45:30.826Z,58.51
2022-11-10T15:47:32.970Z,58.11
2022-11-10T15:49:38.475Z,58.40
2022-11-10T15:51:40.198Z,58.90
2022-11-10T15:53:44.233Z,58.85
2022-11-10T15:55:46.057Z,59.55
2022-11-10T15:57:47.712Z,59.52
2022-11-10T15:59:49.379Z,59.88
2022-11-10T16:01:51.275Z,59.45
2022-11-10T16:03:52.899Z,59.64
2022-11-10T16:05:54.532Z,59.34
2022-11-10T16:07:56.677Z,59.36
2022-11-10T16:09:58.415Z,59.46
2022-11-10T16:12:00.103Z,58.92
2022-11-10T16:14:02.760Z,59.05
2022-11-10T16:16:04.618Z,59.19
2022-11-10T16:18:14.648Z,59.52
2022-11-10T16:20:16.874Z,59.38
2022-11-10T16:22:18.735Z,59.03
2022-11-10T16:24:20.330Z,58.39
2022-11-10T16:26:24.139Z,58.64
2022-11-10T16:28:26.789Z,58.79
2022-11-10T16:30:28.717Z,58.52
2022-11-10T16:32:30.400Z,58.75
2022-11-10T16:34:32.089Z,58.74
2022-11-10T16:36:34.727Z,58.75
2022-11-10T16:38:36.345Z,59.03
2022-11-10T16:40:38.008Z,58.66
2022-11-10T16:42:39.937Z,58.65
2022-11-10T16:44:42.749Z,58.06
2022-11-10T16:46:45.996Z,57.82
2022-11-10T16:48:48.204Z,57.92
2022-11-10T16:50:52.323Z,57.66
2022-11-10T16:52:55.141Z,57.57
2022-11-10T16:54:56.791Z,57.65
2022-11-10T16:56:58.411Z,57.51
2022-11-10T16:59:00.137Z,57.67
2022-11-10T17:01:02.355Z,57.21
2022-11-10T17:03:09.908Z,57.36
2022-11-10T17:05:18.217Z,57.22
2022-11-10T17:07:23.673Z,57.05
2022-11-10T17:09:26.705Z,57.04
2022-11-10T17:11:28.332Z,56.88
2022-11-10T17:13:30.022Z,57.16
2022-11-10T17:15:32.401Z,57.03
2022-11-10T17:17:35.567Z,57.14
2022-11-10T17:19:37.204Z,56.84
2022-11-10T17:21:39.131Z,56.87
2022-11-10T17:23:40.772Z,56.76
2022-11-10T17:25:43.409Z,57.33
2022-11-10T17:27:45.013Z,57.07
2022-11-10T17:29:47.070Z,56.91
2022-11-10T17:31:50.456Z,57.02
2022-11-10T17:33:52.471Z,56.90
2022-11-10T17:35:54.444Z,57.08
2022-11-10T17:37:57.730Z,56.99
2022-11-10T17:40:00.379Z,56.94
2022-11-10T17:42:02.029Z,56.73
2022-11-10T17:44:03.831Z,57.09
2022-11-10T17:46:05.790Z,57.21
2022-11-10T17:48:07.827Z,57.37
2022-11-10T17:50:09.639Z,57.19
2022-11-10T17:52:17.235Z,57.04
2022-11-10T17:54:18.922Z,57.04
2022-11-10T17:56:20.734Z,57.36
2022-11-10T17:58:22.950Z,57.19
2022-11-10T18:00:25.250Z,57.70
2022-11-10T18:02:26.912Z,57.45
2022-11-10T18:04:28.582Z,57.58
2022-11-10T18:06:31.190Z,57.76
2022-11-10T18:08:32.879Z,57.89
2022-11-10T18:10:34.513Z,57.78
2022-11-10T18:12:36.162Z,57.76
2022-11-10T18:14:37.785Z,57.74
2022-11-10T18:16:39.503Z,57.89
2022-11-10T18:18:41.728Z,58.07
2022-11-10T18:20:44.080Z,57.80
2022-11-10T18:22:45.758Z,58.19
2022-11-10T18:24:47.989Z,58.06
2022-11-10T18:26:49.656Z,58.01
2022-11-10T18:28:51.505Z,57.97
2022-11-10T18:30:53.198Z,57.97
2022-11-10T18:32:54.816Z,57.95
2022-11-10T18:34:56.578Z,58.08
2022-11-10T18:36:58.281Z,58.04
2022-11-10T18:39:00.158Z,58.24
2022-11-10T18:41:26.031Z,58.38
2022-11-10T18:43:27.691Z,58.16
2022-11-10T18:45:29.358Z,58.26
2022-11-10T18:47:30.977Z,58.58
2022-11-10T18:49:33.771Z,58.23
2022-11-10T18:51:35.703Z,58.30
2022-11-10T18:53:38.715Z,58.55
2022-11-10T18:55:45.269Z,58.53
2022-11-10T18:57:47.205Z,58.66
2022-11-10T18:59:48.923Z,59.06
2022-11-10T19:01:51.060Z,58.64
2022-11-10T19:03:52.745Z,59.21
2022-11-10T19:05:58.730Z,59.27
2022-11-10T19:08:00.531Z,59.18
2022-11-10T19:10:02.204Z,58.75
2022-11-10T19:12:04.064Z,58.69
2022-11-10T19:14:05.992Z,59.44
2022-11-10T19:16:09.791Z,59.49
2022-11-10T19:18:11.266Z,59.87
2022-11-10T19:20:15.490Z,60.09
2022-11-10T19:22:17.201Z,60.38
2022-11-10T19:24:27.701Z,59.85
2022-11-10T19:26:29.919Z,59.78
2022-11-10T19:28:32.114Z,59.65
2022-11-10T19:30:33.841Z,59.61
2022-11-10T19:32:35.516Z,60.28
2022-11-10T19:34:37.239Z,60.32
2022-11-10T19:36:38.937Z,61.03
2022-11-10T19:38:41.478Z,60.86
2022-11-10T19:40:44.643Z,60.30
2022-11-10T19:42:46.293Z,60.23
2022-11-10T19:44:47.849Z,60.38
2022-11-10T19:46:49.662Z,60.59
2022-11-10T19:48:51.717Z,60.60
2022-11-10T19:50:56.450Z,60.98
2022-11-10T19:52:58.216Z,60.90
2022-11-10T19:54:59.812Z,61.08
2022-11-10T19:57:01.553Z,61.30
2022-11-10T19:59:03.276Z,61.72
2022-11-10T20:01:08.936Z,61.49
2022-11-10T20:03:11.680Z,61.11
2022-11-10T20:05:13.316Z,61.33
2022-11-10T20:07:35.195Z,61.63
2022-11-10T20:09:36.932Z,60.96
2022-11-10T20:11:38.665Z,61.14
2022-11-10T20:13:40.276Z,61.20
2022-11-10T20:15:43.258Z,61.16
2022-11-10T20:17:44.831Z,60.80
2022-11-10T20:19:46.435Z,60.73
2022-11-10T20:21:48.142Z,60.97
2022-11-10T20:23:56.875Z,61.09
2022-11-10T20:26:17.084Z,61.51
2022-11-10T20:28:18.760Z,61.79
2022-11-10T20:30:23.609Z,62.15
2022-11-10T20:32:26.509Z,62.02
2022-11-10T20:34:28.324Z,62.36
2022-11-10T20:36:31.578Z,62.27
2022-11-10T20:38:33.182Z,62.21
2022-11-10T20:40:50.183Z,62.27
2022-11-10T20:42:52.413Z,62.40
2022-11-10T20:44:53.981Z,62.58
2022-11-10T20:46:55.847Z,63.02
2022-11-10T20:48:57.537Z,63.44
2022-11-10T20:50:59.454Z,64.53
2022-11-10T20:53:01.212Z,66.21
2022-11-10T20:55:04.457Z,66.91
2022-11-10T20:57:06.134Z,66.76
2022-11-10T20:59:07.722Z,66.38
2022-11-10T21:01:12.238Z,66.18
2022-11-10T21:03:13.871Z,66.44
2022-11-10T21:05:15.494Z,66.61
2022-11-10T21:07:17.237Z,66.65
2022-11-10T21:09:19.968Z,66.24
2022-11-10T21:11:40.556Z,66.20
2022-11-10T21:13:42.176Z,65.89
2022-11-10T21:15:43.792Z,65.37
2022-11-10T21:17:45.476Z,65.07
2022-11-10T21:19:48.541Z,65.19
2022-11-10T21:21:51.102Z,64.67
2022-11-10T21:23:57.301Z,64.65
2022-11-10T21:26:00.883Z,63.87
2022-11-10T21:28:03.060Z,64.09
2022-11-10T21:30:06.808Z,64.12
2022-11-10T21:32:10.807Z,64.29
2022-11-10T21:34:12.713Z,63.84
2022-11-10T21:36:14.419Z,63.04
2022-11-10T21:38:16.302Z,63.48
2022-11-10T21:40:17.939Z,62.99
2022-11-10T21:42:21.732Z,63.07
2022-11-10T21:44:25.016Z,62.79
2022-11-10T21:46:26.677Z,62.88
2022-11-10T21:48:28.263Z,62.75
2022-11-10T21:50:29.938Z,63.04
2022-11-10T21:52:34.976Z,62.98
2022-11-10T21:54:36.627Z,63.36
2022-11-10T21:56:38.749Z,63.64
2022-11-10T21:58:40.437Z,63.33
2022-11-10T22:00:42.012Z,63.53
2022-11-10T22:02:43.684Z,63.26
2022-11-10T22:04:45.395Z,63.06
2022-11-10T22:07:05.795Z,63.23
2022-11-10T22:09:07.653Z,63.16
2022-11-10T22:11:32.880Z,63.32
2022-11-10T22:13:52.819Z,63.33
2022-11-10T22:16:12.809Z,63.40
2022-11-10T22:18:39.718Z,63.63
2022-11-10T22:20:41.310Z,63.66
2022-11-10T22:22:44.263Z,63.69
2022-11-10T22:24:45.879Z,63.81
2022-11-10T22:26:47.559Z,63.87
2022-11-10T22:28:49.525Z,63.70
2022-11-10T22:30:51.120Z,64.44
2022-11-10T22:32:53.564Z,64.28
2022-11-10T22:34:55.189Z,64.93
2022-11-10T22:36:57.172Z,65.33
2022-11-10T22:39:03.146Z,66.60
2022-11-10T22:41:24.520Z,67.87
2022-11-10T22:43:44.706Z,68.30
2022-11-10T22:45:46.299Z,68.36
2022-11-10T22:48:06.846Z,68.17
2022-11-10T22:50:08.526Z,68.01
2022-11-10T22:52:10.252Z,68.28
2022-11-10T22:54:17.147Z,68.10
2022-11-10T22:56:19.410Z,67.44
2022-11-10T22:58:21.008Z,67.35
2022-11-10T23:00:22.743Z,66.90
2022-11-10T23:02:24.311Z,66.74
2022-11-10T23:04:25.915Z,66.49
2022-11-10T23:06:28.639Z,66.27
2022-11-10T23:08:30.578Z,66.87
2022-11-10T23:10:32.373Z,67.05
2022-11-10T23:12:34.250Z,67.55
2022-11-10T23:14:35.807Z,68.09
2022-11-10T23:16:37.422Z,68.63
2022-11-10T23:18:40.469Z,68.84
2022-11-10T23:20:42.098Z,69.16
2022-11-10T23:22:43.664Z,68.64
2022-11-10T23:24:45.338Z,68.82
2022-11-10T23:26:46.906Z,68.40
2022-11-10T23:28:48.699Z,68.35
2022-11-10T23:30:50.439Z,67.72
2022-11-10T23:32:54.100Z,68.13
2022-11-10T23:34:55.694Z,67.78
2022-11-10T23:36:57.383Z,68.59
2022-11-10T23:38:59.168Z,68.41
2022-11-10T23:41:01.475Z,68.67
2022-11-10T23:43:03.066Z,68.33
2022-11-10T23:45:05.190Z,68.26
2022-11-10T23:47:06.798Z,68.42
2022-11-10T23:49:08.437Z,68.21
2022-11-10T23:51:12.577Z,68.40
2022-11-10T23:53:14.745Z,67.74
2022-11-10T23:55:17.267Z,68.07
2022-11-10T23:57:19.100Z,68.11
2022-11-10T23:59:20.709Z,67.90
